Time;durP1;ratioP1;P1;durP2;ratioP2;P2;SDS_P1;SDS_P2;PMS_P1;PMS_P2;Temp;Humidity;BMP_temperature;BMP_pressure;BME280_temperature;BME280_humidity;BME280_pressure;Samples;Min_cycle;Max_cycle;Signal;HPM_P1;HPM_P2
2022/09/18 00:01:33;;;;;;;7.42;4.08;;;;;;;10.77;88.21;97520.89;1722066;83;27406;-60
2022/09/18 00:04:03;;;;;;;7.05;3.87;;;;;;;10.73;88.39;97526.25;1722000;83;25444;-61
2022/09/18 00:06:34;;;;;;;8.18;3.77;;;;;;;10.74;88.49;97522.95;1722616;82;32635;-60
2022/09/18 00:09:02;;;;;;;6.05;3.90;;;;;;;10.73;88.37;97520.77;1722140;83;26711;-61
2022/09/18 00:11:39;;;;;;;6.33;3.80;;;;;;;10.69;88.21;97520.42;1722422;83;25669;-61
2022/09/18 00:14:08;;;;;;;6.45;4.20;;;;;;;10.65;88.48;97517.59;1722494;83;27590;-60
2022/09/18 00:16:35;;;;;;;6.80;3.92;;;;;;;10.66;88.49;97521.92;1722274;83;25617;-60
2022/09/18 00:19:03;;;;;;;6.72;3.98;;;;;;;10.62;88.46;97522.38;1722397;82;25793;-60
2022/09/18 00:21:30;;;;;;;7.10;3.67;;;;;;;10.57;88.58;97527.52;1722424;83;25916;-60
2022/09/18 00:23:59;;;;;;;6.80;4.00;;;;;;;10.56;88.69;97526.48;1722325;83;25464;-60
2022/09/18 00:26:27;;;;;;;8.13;3.30;;;;;;;10.54;88.81;97513.91;1722280;83;27355;-60
2022/09/18 00:28:54;;;;;;;6.47;3.62;;;;;;;10.52;88.70;97513.47;1721922;83;25682;-60
2022/09/18 00:31:24;;;;;;;8.55;3.62;;;;;;;10.51;88.77;97517.92;1722121;83;25728;-60
2022/09/18 00:33:52;;;;;;;5.35;3.47;;;;;;;10.44;88.61;97522.55;1722331;82;25703;-60
2022/09/18 00:36:19;;;;;;;5.05;2.92;;;;;;;10.42;88.68;97523.45;1722359;82;25671;-60
2022/09/18 00:38:47;;;;;;;8.60;4.00;;;;;;;10.40;88.57;97525.75;1722342;82;28450;-60
2022/09/18 00:41:23;;;;;;;6.03;3.22;;;;;;;10.38;88.49;97526.65;1722171;83;25663;-60
2022/09/18 00:43:52;;;;;;;5.45;3.37;;;;;;;10.34;88.46;97523.81;1722112;83;25745;-60
2022/09/18 00:46:29;;;;;;;7.72;2.80;;;;;;;10.31;88.46;97526.42;1722014;83;25723;-60
2022/09/18 00:49:13;;;;;;;3.62;2.60;;;;;;;10.26;88.49;97525.51;1722463;83;25733;-60
2022/09/18 00:51:41;;;;;;;4.83;2.65;;;;;;;10.23;88.45;97524.81;1722505;83;27539;-60
2022/09/18 00:54:18;;;;;;;5.25;3.20;;;;;;;10.19;88.33;97518.41;1722035;83;25809;-60
2022/09/18 00:56:49;;;;;;;6.20;2.55;;;;;;;10.17;88.46;97519.33;1722710;82;25635;-60
2022/09/18 00:59:21;;;;;;;7.85;2.90;;;;;;;10.08;88.07;97519.43;1722472;82;26564;-60
2022/09/18 01:01:47;;;;;;;5.33;2.45;;;;;;;9.99;88.20;97511.88;1722565;82;25669;-60
2022/09/18 01:04:14;;;;;;;6.15;2.65;;;;;;;9.93;88.30;97515.96;1722237;83;28166;-60
2022/09/18 01:06:55;;;;;;;3.90;2.22;;;;;;;9.89;88.55;97511.72;1722307;83;25654;-60
2022/09/18 01:09:32;;;;;;;5.45;2.10;;;;;;;9.88;88.83;97512.28;1721325;83;25661;-60
2022/09/18 01:12:21;;;;;;;6.03;2.15;;;;;;;9.85;88.67;97508.87;1722307;83;25967;-60
2022/09/18 01:15:04;;;;;;;4.42;2.15;;;;;;;9.83;88.31;97512.52;1722394;83;25685;-60
2022/09/18 01:17:54;;;;;;;7.28;2.33;;;;;;;9.76;88.49;97517.15;1722249;83;28435;-60
2022/09/18 01:20:35;;;;;;;4.03;1.90;;;;;;;9.77;88.65;97516.03;1722086;83;25511;-60
2022/09/18 01:23:36;;;;;;;6.83;1.90;;;;;;;9.72;88.02;97519.52;1722477;82;25519;-60
2022/09/18 01:26:35;;;;;;;4.78;1.87;;;;;;;9.70;88.16;97510.28;1722124;83;25795;-60
2022/09/18 01:29:24;;;;;;;3.60;1.47;;;;;;;9.65;87.81;97509.14;1722772;83;25690;-60
2022/09/18 01:32:23;;;;;;;5.53;2.22;;;;;;;9.61;87.91;97514.47;1721363;83;27478;-60
2022/09/18 01:35:16;;;;;;;4.35;1.87;;;;;;;9.59;88.06;97514.03;1721938;83;25530;-60
2022/09/18 01:38:08;;;;;;;3.55;1.50;;;;;;;9.53;87.92;97522.20;1721995;83;25696;-60
2022/09/18 01:40:49;;;;;;;3.50;1.80;;;;;;;9.47;88.04;97520.80;1722374;83;25769;-60
2022/09/18 01:43:19;;;;;;;4.30;1.75;;;;;;;9.44;87.96;97524.20;1721211;83;25474;-60
2022/09/18 01:45:50;;;;;;;2.77;1.90;;;;;;;9.40;88.16;97529.53;1722836;83;28431;-60
2022/09/18 01:48:34;;;;;;;6.78;1.70;;;;;;;9.39;88.36;97526.58;1722197;83;25871;-60
2022/09/18 01:51:23;;;;;;;2.58;1.55;;;;;;;9.37;88.21;97522.81;1721059;83;25638;-60
2022/09/18 01:53:57;;;;;;;3.83;1.82;;;;;;;9.36;88.11;97532.13;1721985;83;25808;-59
2022/09/18 01:56:47;;;;;;;5.83;2.12;;;;;;;9.34;88.05;97528.94;1722052;83;25677;-59
2022/09/18 01:59:24;;;;;;;5.50;2.22;;;;;;;9.31;88.22;97539.73;1722043;83;27474;-59
2022/09/18 02:01:54;;;;;;;3.37;1.70;;;;;;;9.27;88.03;97530.83;1720124;83;25439;-59
2022/09/18 02:04:25;;;;;;;5.10;2.27;;;;;;;9.28;88.14;97531.64;1722446;83;25667;-59
2022/09/18 02:07:13;;;;;;;6.17;2.10;;;;;;;9.27;87.94;97529.46;1722009;83;25737;-59
2022/09/18 02:09:41;;;;;;;6.05;2.00;;;;;;;9.25;87.86;97539.14;1722006;82;25598;-59
2022/09/18 02:12:11;;;;;;;4.03;2.33;;;;;;;9.21;87.84;97540.94;1722606;82;27454;-59
2022/09/18 02:14:42;;;;;;;4.15;1.77;;;;;;;9.19;87.84;97536.36;1722427;83;25694;-59
2022/09/18 02:17:19;;;;;;;3.83;1.90;;;;;;;9.16;87.70;97535.89;1722423;83;25885;-59
2022/09/18 02:19:59;;;;;;;4.20;1.90;;;;;;;9.11;87.69;97544.30;1720859;83;26640;-60
2022/09/18 02:22:34;;;;;;;3.45;1.80;;;;;;;9.04;87.67;97543.44;1722355;83;25669;-60
2022/09/18 02:25:08;;;;;;;5.35;2.10;;;;;;;9.01;87.78;97541.95;1722273;82;27377;-60
2022/09/18 02:27:39;;;;;;;4.40;2.20;;;;;;;8.95;87.88;97540.55;1721818;83;25959;-60
2022/09/18 02:30:13;;;;;;;4.05;2.10;;;;;;;8.91;87.95;97540.39;1722311;83;25476;-60
2022/09/18 02:32:50;;;;;;;4.97;2.25;;;;;;;8.90;87.91;97542.31;1722117;83;25865;-61
2022/09/18 02:35:22;;;;;;;5.75;2.20;;;;;;;8.88;87.77;97543.78;1722247;83;25453;-61
2022/09/18 02:38:15;;;;;;;5.97;1.70;;;;;;;8.84;87.75;97542.27;1722421;83;28135;-61
2022/09/18 02:41:16;;;;;;;3.35;2.00;;;;;;;8.83;87.74;97543.41;1722028;83;25500;-60
2022/09/18 02:44:00;;;;;;;5.20;2.45;;;;;;;8.83;87.88;97546.69;1722171;83;25654;-61
2022/09/18 02:46:54;;;;;;;6.92;2.60;;;;;;;8.84;87.91;97547.73;1720866;83;25527;-60
2022/09/18 02:49:44;;;;;;;7.47;2.50;;;;;;;8.83;87.79;97550.23;1721830;83;25661;-60
2022/09/18 02:52:18;;;;;;;6.30;2.65;;;;;;;8.80;87.72;97548.16;1722016;82;27633;-58
2022/09/18 02:54:59;;;;;;;4.25;2.52;;;;;;;8.76;87.61;97545.86;1721889;83;26039;-60
2022/09/18 02:57:44;;;;;;;3.58;2.65;;;;;;;8.75;87.61;97549.73;1722487;83;25439;-61
2022/09/18 03:00:15;;;;;;;6.50;3.22;;;;;;;8.77;87.74;97548.82;1722340;83;26364;-58
2022/09/18 03:02:40;;;;;;;5.30;2.58;;;;;;;8.78;87.58;97544.39;1721992;82;25444;-58
2022/09/18 03:05:08;;;;;;;5.25;2.92;;;;;;;8.71;87.51;97542.75;1722437;83;27365;-58
2022/09/18 03:07:35;;;;;;;3.60;2.15;;;;;;;8.68;87.69;97543.41;1722335;82;25670;-58
2022/09/18 03:10:01;;;;;;;2.92;2.17;;;;;;;8.66;87.56;97546.47;1712162;83;25478;-58
2022/09/18 03:12:27;;;;;;;15.53;2.65;;;;;;;8.63;87.58;97542.21;1708939;83;26306;-57
2022/09/18 03:14:53;;;;;;;2.50;1.90;;;;;;;8.61;87.68;97543.91;1708623;84;25499;-58
2022/09/18 03:17:20;;;;;;;4.28;2.50;;;;;;;8.62;87.74;97533.80;1708852;84;27490;-57
2022/09/18 03:19:46;;;;;;;4.95;2.35;;;;;;;8.63;87.62;97539.48;1708911;84;25621;-58
2022/09/18 03:22:12;;;;;;;2.55;2.10;;;;;;;8.63;87.44;97542.21;1708756;83;25700;-58
2022/09/18 03:24:39;;;;;;;4.47;2.40;;;;;;;8.59;87.35;97544.00;1708947;83;25757;-58
2022/09/18 03:27:05;;;;;;;4.72;2.45;;;;;;;8.57;87.58;97536.70;1709074;84;25693;-58
2022/09/18 03:29:32;;;;;;;2.70;2.12;;;;;;;8.55;87.49;97538.39;1708694;83;28709;-57
2022/09/18 03:31:58;;;;;;;4.78;2.80;;;;;;;8.54;87.39;97535.43;1708803;84;25681;-57
2022/09/18 03:34:24;;;;;;;3.95;2.25;;;;;;;8.50;87.41;97538.56;1709206;83;25595;-57
2022/09/18 03:36:50;;;;;;;4.28;2.62;;;;;;;8.49;87.51;97539.11;1708740;83;25623;-57
2022/09/18 03:39:18;;;;;;;3.40;2.60;;;;;;;8.47;87.23;97547.41;1709216;83;25622;-57
2022/09/18 03:41:44;;;;;;;4.17;2.77;;;;;;;8.40;87.32;97542.44;1709060;84;27437;-57
2022/09/18 03:44:10;;;;;;;3.75;2.72;;;;;;;8.35;87.09;97548.88;1708706;84;25996;-57
2022/09/18 03:46:37;;;;;;;5.40;3.00;;;;;;;8.27;87.12;97540.17;1709103;83;25674;-57
2022/09/18 03:49:03;;;;;;;4.75;2.80;;;;;;;8.19;87.12;97548.61;1709002;84;25869;-57
2022/09/18 03:51:29;;;;;;;6.22;3.20;;;;;;;8.16;87.30;97539.71;1709014;84;25665;-57
2022/09/18 03:53:55;;;;;;;6.03;3.70;;;;;;;8.11;87.45;97543.97;1709140;83;28461;-57
2022/09/18 03:56:21;;;;;;;5.90;3.37;;;;;;;8.05;87.43;97543.34;1708989;83;25495;-57
2022/09/18 03:58:47;;;;;;;6.60;3.42;;;;;;;8.02;87.32;97537.17;1708952;83;25491;-57
2022/09/18 04:01:13;;;;;;;8.63;3.33;;;;;;;8.00;87.60;97545.69;1709107;83;26417;-57
2022/09/18 04:03:40;;;;;;;5.55;3.10;;;;;;;7.98;87.46;97539.77;1709145;83;25457;-57
2022/09/18 04:06:07;;;;;;;3.70;3.20;;;;;;;7.97;87.36;97547.70;1708897;83;27480;-57
2022/09/18 04:08:34;;;;;;;5.53;3.10;;;;;;;7.94;87.27;97546.20;1709223;83;25619;-57
2022/09/18 04:11:02;;;;;;;6.92;3.15;;;;;;;7.93;87.39;97541.84;1722398;83;25455;-57
2022/09/18 04:13:28;;;;;;;3.80;2.67;;;;;;;7.90;87.28;97544.11;1722050;83;25645;-57
2022/09/18 04:15:54;;;;;;;5.80;3.02;;;;;;;7.86;87.07;97545.08;1722502;82;25654;-57
2022/09/18 04:18:20;;;;;;;5.85;3.27;;;;;;;7.84;86.81;97543.23;1722575;83;27478;-57
2022/09/18 04:20:46;;;;;;;5.60;2.60;;;;;;;7.81;86.86;97543.88;1722364;82;25629;-57
2022/09/18 04:23:13;;;;;;;6.62;3.05;;;;;;;7.76;86.72;97546.20;1722605;82;25487;-57
2022/09/18 04:25:43;;;;;;;9.15;5.08;;;;;;;7.71;86.56;97545.80;1721946;82;25692;-57
2022/09/18 04:28:10;;;;;;;9.50;5.95;;;;;;;7.67;86.59;97544.85;1722337;82;25729;-57
2022/09/18 04:30:37;;;;;;;239.38;122.53;;;;;;;7.62;86.65;97545.81;1722346;83;27439;-57
2022/09/18 04:33:03;;;;;;;39.67;20.12;;;;;;;7.59;86.77;97547.82;1722098;83;25859;-57
2022/09/18 04:35:30;;;;;;;6.42;4.12;;;;;;;7.57;86.90;97550.06;1722394;83;25519;-57
2022/09/18 04:37:56;;;;;;;8.15;3.30;;;;;;;7.55;87.06;97548.23;1722243;83;25774;-57
2022/09/18 04:40:22;;;;;;;7.72;4.17;;;;;;;7.51;87.08;97554.06;1722183;83;25436;-57
2022/09/18 04:42:48;;;;;;;6.35;3.95;;;;;;;7.50;87.30;97561.45;1722615;82;27531;-57
2022/09/18 04:45:14;;;;;;;7.37;4.65;;;;;;;7.50;87.52;97560.65;1722428;83;25584;-57
2022/09/18 04:47:40;;;;;;;20.75;7.00;;;;;;;7.50;87.41;97551.11;1722542;83;25524;-57
2022/09/18 04:50:07;;;;;;;23.55;7.17;;;;;;;7.52;87.47;97556.47;1722347;83;26516;-57
2022/09/18 04:52:36;;;;;;;6.37;3.92;;;;;;;7.54;87.45;97557.52;1722294;83;25500;-57
2022/09/18 04:55:04;;;;;;;34.13;10.58;;;;;;;7.56;87.51;97556.64;1722405;82;28449;-57
2022/09/18 04:57:29;;;;;;;14.98;5.78;;;;;;;7.61;87.54;97557.05;1721938;83;25509;-57
2022/09/18 04:59:55;;;;;;;7.30;3.58;;;;;;;7.63;87.33;97554.80;1722681;82;25625;-57
2022/09/18 05:02:22;;;;;;;5.45;3.05;;;;;;;7.65;87.42;97553.36;1722341;82;25511;-57
2022/09/18 05:04:48;;;;;;;16.57;6.70;;;;;;;7.66;87.43;97559.04;1722274;83;25421;-57
2022/09/18 05:07:14;;;;;;;10.43;4.97;;;;;;;7.69;87.52;97556.80;1722516;82;27322;-57
2022/09/18 05:09:40;;;;;;;8.13;4.22;;;;;;;7.71;87.37;97556.71;1721848;82;25768;-58
2022/09/18 05:12:08;;;;;;;8.30;3.67;;;;;;;7.73;87.52;97555.84;1722273;82;25616;-57
2022/09/18 05:14:35;;;;;;;10.70;4.45;;;;;;;7.75;87.46;97553.58;1722020;82;25695;-57
2022/09/18 05:17:01;;;;;;;4.85;2.87;;;;;;;7.78;87.38;97556.23;1722231;83;25476;-57
2022/09/18 05:19:27;;;;;;;9.85;3.85;;;;;;;7.81;87.40;97551.50;1722634;83;27454;-57
2022/09/18 05:21:53;;;;;;;6.85;3.10;;;;;;;7.82;87.36;97544.91;1722368;82;25725;-57
2022/09/18 05:24:19;;;;;;;6.15;3.33;;;;;;;7.86;87.38;97548.59;1722035;83;25462;-58
2022/09/18 05:26:46;;;;;;;6.78;3.33;;;;;;;7.89;87.44;97547.95;1722357;83;25902;-57
2022/09/18 05:29:12;;;;;;;6.72;3.58;;;;;;;7.94;87.53;97544.25;1722142;83;25622;-57
2022/09/18 05:31:38;;;;;;;7.37;4.33;;;;;;;7.96;87.42;97541.20;1722572;83;27602;-57
2022/09/18 05:34:05;;;;;;;5.35;3.67;;;;;;;8.00;87.51;97546.27;1722199;83;25934;-57
2022/09/18 05:36:31;;;;;;;7.05;3.30;;;;;;;8.05;87.62;97544.71;1722109;83;25687;-57
2022/09/18 05:38:58;;;;;;;4.30;3.02;;;;;;;8.10;87.38;97539.65;1722542;82;25612;-57
2022/09/18 05:41:24;;;;;;;5.25;3.67;;;;;;;8.11;87.25;97545.33;1722349;82;25635;-57
2022/09/18 05:43:50;;;;;;;10.35;6.00;;;;;;;8.13;87.42;97548.55;1722131;83;28610;-57
2022/09/18 05:46:17;;;;;;;6.65;3.42;;;;;;;8.19;87.88;97545.08;1722519;83;25437;-57
2022/09/18 05:48:43;;;;;;;8.35;4.20;;;;;;;8.21;87.16;97542.28;1722129;83;25464;-57
2022/09/18 05:51:10;;;;;;;9.95;4.33;;;;;;;8.24;87.20;97547.09;1722190;83;26281;-57
2022/09/18 05:53:36;;;;;;;6.80;4.20;;;;;;;8.28;87.19;97546.66;1722134;82;25463;-57
2022/09/18 05:56:04;;;;;;;5.75;3.25;;;;;;;8.36;87.71;97544.23;1722222;83;27426;-57
2022/09/18 05:58:30;;;;;;;8.95;3.83;;;;;;;8.44;87.39;97542.05;1721935;83;25477;-57
2022/09/18 06:01:00;;;;;;;6.45;3.98;;;;;;;8.52;87.52;97544.50;1722240;83;25477;-57
2022/09/18 06:03:25;;;;;;;4.83;3.67;;;;;;;8.60;87.45;97540.95;1721969;83;25637;-57
2022/09/18 06:05:53;;;;;;;4.95;3.25;;;;;;;8.71;87.77;97546.84;1722698;82;25416;-57
2022/09/18 06:08:21;;;;;;;4.50;3.02;;;;;;;8.83;87.62;97546.69;1722269;83;26959;-57
2022/09/18 06:10:47;;;;;;;5.37;3.02;;;;;;;8.91;86.90;97539.84;1713542;83;25603;-57
2022/09/18 06:13:16;;;;;;;5.95;3.37;;;;;;;9.03;87.41;97552.78;1709255;83;25654;-57
2022/09/18 06:15:49;;;;;;;4.37;2.70;;;;;;;9.10;86.51;97543.26;1708913;83;25741;-57
2022/09/18 06:18:15;;;;;;;4.00;2.98;;;;;;;9.18;86.88;97545.70;1708951;84;25617;-57
2022/09/18 06:20:43;;;;;;;4.00;2.75;;;;;;;9.25;86.89;97539.95;1701778;84;27476;-57
2022/09/18 06:23:10;;;;;;;3.95;2.60;;;;;;;9.36;87.38;97537.59;1708836;84;25719;-57
2022/09/18 06:25:36;;;;;;;3.87;2.85;;;;;;;9.41;85.87;97540.14;1709133;83;25690;-57
2022/09/18 06:28:05;;;;;;;3.33;2.15;;;;;;;9.48;85.97;97546.45;1708789;83;26964;-57
2022/09/18 06:30:34;;;;;;;5.83;3.15;;;;;;;9.54;87.52;97541.02;1708628;84;25770;-57
2022/09/18 06:33:04;;;;;;;3.45;2.42;;;;;;;9.60;86.36;97545.70;1708916;84;27494;-57
2022/09/18 06:35:33;;;;;;;4.57;2.43;;;;;;;9.69;85.55;97549.73;1708229;83;26221;-57
2022/09/18 06:38:01;;;;;;;3.77;2.50;;;;;;;9.77;85.92;97546.69;1709027;83;25500;-58
2022/09/18 06:40:29;;;;;;;3.15;1.95;;;;;;;9.79;85.38;97556.15;1708670;84;25927;-57
2022/09/18 06:43:03;;;;;;;4.05;2.40;;;;;;;9.80;84.77;97558.33;1708955;83;25506;-57
2022/09/18 06:45:31;;;;;;;3.47;2.40;;;;;;;9.81;85.11;97561.87;1708679;84;28273;-57
2022/09/18 06:48:02;;;;;;;4.22;2.85;;;;;;;9.82;84.53;97560.17;1707749;82;25796;-58
2022/09/18 06:50:28;;;;;;;5.03;2.47;;;;;;;9.83;84.94;97557.66;1687491;83;25723;-58
2022/09/18 06:52:54;;;;;;;3.58;2.20;;;;;;;9.88;85.12;97562.13;1684570;84;26473;-58
2022/09/18 06:55:20;;;;;;;3.87;2.92;;;;;;;9.89;84.68;97554.14;1658816;85;25712;-57
2022/09/18 06:57:57;;;;;;;4.67;2.27;;;;;;;9.91;84.46;97557.34;1673713;85;27405;-57
2022/09/18 07:00:25;;;;;;;4.72;2.60;;;;;;;9.94;84.49;97555.86;1674261;85;25730;-58
2022/09/18 07:02:56;;;;;;;3.52;2.35;;;;;;;9.99;85.23;97561.92;1674322;85;25806;-58
2022/09/18 07:05:25;;;;;;;3.60;2.47;;;;;;;10.06;85.18;97559.20;1674341;85;25759;-58
2022/09/18 07:07:51;;;;;;;7.40;3.30;;;;;;;10.08;83.77;97562.41;1673646;85;26407;-58
2022/09/18 07:10:18;;;;;;;3.42;2.30;;;;;;;10.10;84.11;97560.93;1677937;85;26902;-58
2022/09/18 07:12:47;;;;;;;3.92;2.85;;;;;;;10.15;84.20;97563.47;1687108;85;25737;-58
2022/09/18 07:15:13;;;;;;;4.83;2.47;;;;;;;10.26;84.29;97566.58;1686895;85;26358;-58
2022/09/18 07:17:40;;;;;;;6.58;2.22;;;;;;;10.31;83.24;97567.49;1686930;85;25737;-58
2022/09/18 07:20:07;;;;;;;2.90;2.27;;;;;;;10.26;82.51;97565.77;1687592;85;25737;-59
2022/09/18 07:22:34;;;;;;;4.42;2.77;;;;;;;10.28;83.58;97572.50;1687321;85;27384;-58
2022/09/18 07:25:00;;;;;;;5.55;2.72;;;;;;;10.42;83.87;97572.19;1686866;85;25774;-58
2022/09/18 07:27:28;;;;;;;4.08;2.35;;;;;;;10.56;83.67;97575.20;1687410;85;25701;-58
2022/09/18 07:29:55;;;;;;;4.28;2.27;;;;;;;10.68;83.55;97580.48;1687146;85;25757;-58
2022/09/18 07:32:23;;;;;;;4.28;2.67;;;;;;;10.82;83.83;97578.20;1687189;85;25666;-59
2022/09/18 07:34:50;;;;;;;2.90;2.25;;;;;;;10.94;83.85;97571.91;1687060;85;27337;-58
2022/09/18 07:37:16;;;;;;;2.98;2.10;;;;;;;11.00;83.09;97569.76;1686832;85;25975;-58
2022/09/18 07:39:43;;;;;;;3.62;2.30;;;;;;;11.03;83.12;97575.92;1687267;85;25710;-58
2022/09/18 07:42:11;;;;;;;2.33;2.02;;;;;;;11.24;84.74;97573.61;1687032;85;26502;-59
2022/09/18 07:44:37;;;;;;;2.90;2.12;;;;;;;11.48;83.12;97572.77;1686825;85;25813;-59
2022/09/18 07:47:04;;;;;;;3.30;2.20;;;;;;;11.66;82.28;97579.36;1687473;85;27627;-59
2022/09/18 07:49:31;;;;;;;1.95;1.55;;;;;;;11.77;82.59;97576.90;1687082;85;25724;-58
2022/09/18 07:51:59;;;;;;;4.42;1.75;;;;;;;11.85;80.36;97571.85;1687041;85;25801;-60
2022/09/18 07:54:25;;;;;;;2.33;1.57;;;;;;;11.81;80.65;97575.08;1687229;85;25942;-60
2022/09/18 07:56:51;;;;;;;3.90;1.80;;;;;;;11.83;80.58;97581.59;1686977;85;25915;-60
2022/09/18 07:59:17;;;;;;;2.45;1.70;;;;;;;11.79;81.81;97577.36;1687294;85;27454;-61
2022/09/18 08:01:43;;;;;;;3.58;1.75;;;;;;;11.85;81.43;97582.83;1687121;85;25754;-60
2022/09/18 08:04:09;;;;;;;4.12;1.30;;;;;;;11.94;81.31;97587.39;1687304;85;25888;-60
2022/09/18 08:06:36;;;;;;;1.87;1.10;;;;;;;12.01;80.59;97582.09;1687102;85;26497;-60
2022/09/18 08:09:02;;;;;;;2.52;1.40;;;;;;;12.03;79.04;97581.14;1686975;85;25666;-60
2022/09/18 08:11:28;;;;;;;4.20;1.72;;;;;;;12.00;79.53;97587.37;1686883;85;27535;-60
2022/09/18 08:13:55;;;;;;;2.40;1.45;;;;;;;12.00;79.86;97581.28;1687255;85;25857;-60
2022/09/18 08:16:20;;;;;;;2.85;1.90;;;;;;;11.97;79.87;97584.73;1687293;85;25707;-60
2022/09/18 08:18:48;;;;;;;2.75;1.80;;;;;;;12.09;81.02;97588.02;1686887;85;27822;-60
2022/09/18 08:21:14;;;;;;;2.40;1.77;;;;;;;12.26;81.18;97587.50;1686957;85;25710;-60
2022/09/18 08:23:40;;;;;;;2.58;1.72;;;;;;;12.35;81.13;97586.74;1687161;85;27612;-60
2022/09/18 08:26:06;;;;;;;3.95;2.15;;;;;;;12.43;80.27;97594.59;1687222;85;25770;-60
2022/09/18 08:28:32;;;;;;;3.12;1.45;;;;;;;12.48;78.93;97587.48;1687080;85;25734;-60
2022/09/18 08:30:58;;;;;;;12.90;5.70;;;;;;;12.64;80.27;97582.58;1687279;85;26379;-60
2022/09/18 08:33:25;;;;;;;2.55;1.57;;;;;;;12.71;76.17;97581.38;1687227;85;25754;-60
2022/09/18 08:35:52;;;;;;;2.58;1.65;;;;;;;12.82;76.92;97578.09;1686879;85;27498;-60
2022/09/18 08:38:18;;;;;;;4.25;2.47;;;;;;;13.02;76.50;97584.47;1661076;85;25788;-60
2022/09/18 08:41:14;;;;;;;1.87;1.37;;;;;;;13.23;77.54;97582.78;1696070;83;25745;-60
2022/09/18 08:43:58;;;;;;;1.72;1.20;;;;;;;13.42;76.79;97575.73;1721020;83;25936;-60
2022/09/18 08:46:39;;;;;;;1.82;1.15;;;;;;;13.90;73.51;97581.08;1720927;83;25836;-60
2022/09/18 08:49:20;;;;;;;;;;;;;;;13.90;73.51;97581.08;1723487;83;27434;-59
2022/09/18 08:51:57;;;;;;;1.07;0.85;;;;;;;13.73;71.59;97574.05;1717991;83;25684;-60
2022/09/18 08:54:44;;;;;;;2.65;1.60;;;;;;;13.62;72.72;97572.44;1708088;83;25745;-60
2022/09/18 08:57:34;;;;;;;1.85;1.35;;;;;;;13.40;71.75;97565.09;1721468;83;25609;-60
2022/09/18 09:00:18;;;;;;;6.10;2.22;;;;;;;13.32;73.73;97562.55;1713110;83;25489;-60
2022/09/18 09:02:54;;;;;;;1.30;1.10;;;;;;;13.24;72.11;97560.20;1722093;83;27473;-60
2022/09/18 09:05:27;;;;;;;1.80;1.10;;;;;;;13.21;72.56;97563.08;1721924;83;25645;-59
2022/09/18 09:08:25;;;;;;;1.25;1.15;;;;;;;13.32;73.04;97557.82;1722471;83;25464;-60
2022/09/18 09:11:11;;;;;;;2.00;1.30;;;;;;;13.43;73.24;97558.87;1716916;83;27807;-60
2022/09/18 09:14:10;;;;;;;1.67;1.30;;;;;;;13.37;70.49;97550.67;1698937;84;25651;-61
2022/09/18 09:16:49;;;;;;;1.57;1.22;;;;;;;13.32;72.57;97568.05;1683539;85;27370;-57
2022/09/18 09:19:27;;;;;;;3.10;1.05;;;;;;;13.11;74.55;97593.89;1683180;85;25694;-56
2022/09/18 09:22:19;;;;;;;1.20;0.80;;;;;;;12.78;74.59;97598.63;1683247;85;25580;-57
2022/09/18 09:24:50;;;;;;;1.30;1.20;;;;;;;12.37;75.39;97587.77;1683500;85;25729;-57
2022/09/18 09:27:43;;;;;;;1.80;1.37;;;;;;;12.01;76.35;97588.36;1683293;85;25701;-59
2022/09/18 09:30:21;;;;;;;2.52;1.35;;;;;;;11.81;78.37;97597.04;1683356;85;28290;-57
2022/09/18 09:32:52;;;;;;;3.77;1.47;;;;;;;11.66;78.50;97599.95;1683463;85;25755;-59
2022/09/18 09:35:30;;;;;;;5.65;1.72;;;;;;;11.54;79.43;97606.23;1683526;85;25556;-57
2022/09/18 09:38:01;;;;;;;6.30;2.62;;;;;;;11.31;79.09;97607.33;1682475;85;26312;-58
2022/09/18 09:40:35;;;;;;;3.15;2.00;;;;;;;11.04;79.18;97616.70;1683177;85;25646;-57
2022/09/18 09:43:12;;;;;;;3.47;2.00;;;;;;;10.84;79.43;97617.03;1683981;85;27592;-57
2022/09/18 09:45:48;;;;;;;7.22;2.98;;;;;;;10.74;80.09;97610.63;1685647;85;25525;-57
2022/09/18 09:48:38;;;;;;;4.17;2.70;;;;;;;10.69;81.00;97608.10;1685718;85;25759;-57
2022/09/18 09:51:38;;;;;;;2.37;1.50;;;;;;;10.71;81.38;97612.68;1686067;85;25606;-57
2022/09/18 09:54:08;;;;;;;2.50;1.60;;;;;;;10.80;82.01;97607.90;1642015;86;25547;-57
2022/09/18 09:56:40;;;;;;;3.08;2.05;;;;;;;11.24;84.71;97605.14;1641670;87;27385;-57
2022/09/18 09:59:27;;;;;;;3.58;1.80;;;;;;;12.07;85.38;97605.44;1641292;87;25738;-57
2022/09/18 10:02:22;;;;;;;4.70;2.35;;;;;;;12.72;83.98;97604.17;1673058;85;25727;-57
2022/09/18 10:05:15;;;;;;;3.25;2.17;;;;;;;13.22;82.63;97597.70;1673168;85;25743;-58
2022/09/18 10:08:14;;;;;;;2.52;1.80;;;;;;;13.52;79.92;97606.84;1632472;87;25724;-58
2022/09/18 10:10:52;;;;;;;2.85;1.60;;;;;;;13.86;80.67;97606.38;1599267;89;27796;-57
2022/09/18 10:13:26;;;;;;;3.17;1.98;;;;;;;14.13;79.71;97607.89;1599220;89;26103;-58
2022/09/18 10:16:04;;;;;;;3.47;2.40;;;;;;;14.29;78.74;97609.19;1599331;89;25571;-58
2022/09/18 10:18:34;;;;;;;2.83;2.02;;;;;;;14.28;78.99;97613.69;1592335;89;26517;-58
2022/09/18 10:21:15;;;;;;;3.27;2.20;;;;;;;14.26;78.76;97610.49;1599390;89;25695;-59
2022/09/18 10:23:56;;;;;;;1.72;1.27;;;;;;;14.08;76.78;97633.56;1579699;89;27896;-59
2022/09/18 10:26:33;;;;;;;1.35;1.00;;;;;;;13.73;77.94;97635.21;1573980;91;25745;-60
2022/09/18 10:28:59;;;;;;;1.20;1.05;;;;;;;13.26;76.98;97629.41;1575317;90;25745;-58
2022/09/18 10:31:54;;;;;;;1.35;0.95;;;;;;;12.92;77.97;97632.53;1582466;90;25901;-59
2022/09/18 10:34:34;;;;;;;1.85;1.10;;;;;;;12.82;79.17;97632.50;1582231;90;25833;-60
2022/09/18 10:37:01;;;;;;;1.75;1.22;;;;;;;12.93;81.09;97636.30;1559537;90;27432;-60
2022/09/18 10:39:33;;;;;;;3.10;1.85;;;;;;;13.52;82.65;97626.11;1586896;90;25785;-59
2022/09/18 10:42:04;;;;;;;3.45;2.20;;;;;;;14.26;81.27;97632.53;1643983;85;25712;-58
2022/09/18 10:44:44;;;;;;;3.45;2.00;;;;;;;14.79;79.60;97628.39;1695194;83;25789;-59
2022/09/18 10:47:20;;;;;;;2.57;1.83;;;;;;;15.10;77.85;97625.17;1719755;83;25637;-59
2022/09/18 10:49:55;;;;;;;2.30;1.70;;;;;;;15.13;77.27;97634.66;1720032;83;27541;-59
2022/09/18 10:52:37;;;;;;;2.50;1.92;;;;;;;15.08;77.02;97628.88;1719876;83;25474;-60
2022/09/18 10:55:11;;;;;;;2.72;1.60;;;;;;;14.98;75.37;97623.98;1720058;83;25702;-59
2022/09/18 10:58:13;;;;;;;2.80;1.60;;;;;;;14.77;75.69;97625.97;1719726;83;26558;-60
2022/09/18 11:00:47;;;;;;;1.98;1.50;;;;;;;14.41;74.26;97633.03;1667747;86;25785;-60
2022/09/18 11:03:24;;;;;;;2.00;1.32;;;;;;;14.10;75.05;97640.89;1668038;86;27600;-59
2022/09/18 11:06:03;;;;;;;1.00;0.90;;;;;;;13.93;75.55;97635.44;1666655;86;25539;-60
2022/09/18 11:08:34;;;;;;;1.27;0.72;;;;;;;13.69;74.44;97646.13;1667956;86;25653;-60
2022/09/18 11:11:07;;;;;;;1.10;0.80;;;;;;;13.43;74.16;97644.74;1667158;85;25693;-60
2022/09/18 11:13:45;;;;;;;0.93;0.57;;;;;;;13.37;75.60;97653.05;1652408;86;25694;-60
2022/09/18 11:16:15;;;;;;;1.10;0.80;;;;;;;13.20;74.76;97659.72;1651433;86;27401;-60
2022/09/18 11:18:43;;;;;;;1.47;0.70;;;;;;;12.96;75.09;97667.01;1652022;86;25947;-60
2022/09/18 11:21:08;;;;;;;1.27;0.65;;;;;;;12.75;74.00;97663.94;1630141;86;25649;-60
2022/09/18 11:23:39;;;;;;;1.27;0.70;;;;;;;12.52;74.73;97667.27;1653278;86;25716;-60
2022/09/18 11:26:29;;;;;;;0.60;0.50;;;;;;;12.36;76.33;97683.14;1652905;86;25676;-60
2022/09/18 11:29:26;;;;;;;0.60;0.40;;;;;;;12.24;75.38;97676.31;1653451;86;27380;-60
2022/09/18 11:32:16;;;;;;;0.40;0.40;;;;;;;12.15;76.32;97681.37;1652906;86;25552;-60
2022/09/18 11:34:52;;;;;;;0.93;0.57;;;;;;;12.09;74.68;97692.37;1671926;85;25722;-60
2022/09/18 11:38:05;;;;;;;0.30;0.30;;;;;;;11.96;75.31;97693.52;1689627;84;25863;-60
2022/09/18 11:40:47;;;;;;;3.55;0.75;;;;;;;11.99;76.35;97682.66;1708805;83;25611;-60
2022/09/18 11:43:18;;;;;;;1.22;0.50;;;;;;;12.02;76.78;97690.77;1706348;84;27438;-61
2022/09/18 11:46:18;;;;;;;4.08;0.90;;;;;;;12.00;77.55;97702.09;1707980;83;26975;-60
2022/09/18 11:49:02;;;;;;;1.17;0.87;;;;;;;11.97;77.14;97710.24;1708989;83;25673;-61
2022/09/18 11:51:49;;;;;;;3.10;0.80;;;;;;;11.97;77.64;97702.00;1708701;84;25766;-60
2022/09/18 11:54:52;;;;;;;1.90;0.98;;;;;;;11.99;78.13;97701.06;1656684;86;25645;-61
2022/09/18 11:57:32;;;;;;;2.12;1.00;;;;;;;12.01;77.60;97705.06;1656620;86;27486;-61
2022/09/18 12:00:16;;;;;;;1.52;1.00;;;;;;;12.05;78.90;97706.55;1654059;86;25875;-62
2022/09/18 12:03:07;;;;;;;1.50;0.90;;;;;;;11.90;77.82;97705.33;1657030;86;25704;-62
2022/09/18 12:06:19;;;;;;;1.95;1.10;;;;;;;11.75;79.03;97710.36;1655016;86;26956;-62